createdAt,value
2017-05-04T00:00:27.513Z,10.14
2017-05-04T00:01:28.641Z,10.32
2017-05-04T00:02:29.907Z,10.3
2017-05-04T00:03:31.146Z,10.32
2017-05-04T00:04:32.428Z,10.34
2017-05-04T00:05:33.635Z,10.34
2017-05-04T00:06:34.894Z,10.36
2017-05-04T00:07:36.137Z,10.39
2017-05-04T00:08:37.368Z,10.4
2017-05-04T00:09:38.615Z,10.39
2017-05-04T00:10:39.860Z,10.42
2017-05-04T00:11:41.097Z,10.42
2017-05-04T00:12:42.352Z,10.4
2017-05-04T00:13:43.688Z,10.43
2017-05-04T00:14:45.109Z,10.47
2017-05-04T00:15:46.347Z,10.42
2017-05-04T00:16:47.599Z,10.44
2017-05-04T00:17:48.871Z,10.43
2017-05-04T00:18:50.097Z,10.42
2017-05-04T00:19:51.455Z,10.42
2017-05-04T00:20:52.700Z,10.52
2017-05-04T00:21:53.931Z,10.46
2017-05-04T00:22:55.184Z,10.39
2017-05-04T00:23:56.491Z,10.4
2017-05-04T00:24:57.724Z,10.4
2017-05-04T00:25:58.957Z,10.37
2017-05-04T00:27:00.201Z,10.53
2017-05-04T00:28:01.438Z,10.4
2017-05-04T00:29:02.670Z,10.52
2017-05-04T00:30:04.147Z,10.4
2017-05-04T00:31:05.412Z,10.43
2017-05-04T00:32:06.753Z,10.47
2017-05-04T00:33:07.995Z,10.43
2017-05-04T00:34:09.233Z,10.44
2017-05-04T00:35:10.480Z,10.44
2017-05-04T00:36:11.742Z,10.51
2017-05-04T00:37:12.977Z,10.55
2017-05-04T00:38:14.203Z,10.47
2017-05-04T00:39:15.448Z,10.47
2017-05-04T00:40:16.716Z,10.46
2017-05-04T00:41:17.995Z,10.42
2017-05-04T00:42:19.218Z,10.43
2017-05-04T00:43:20.561Z,10.51
2017-05-04T00:44:22.139Z,10.52
2017-05-04T00:45:23.369Z,10.42
2017-05-04T00:46:24.602Z,10.43
2017-05-04T00:47:25.836Z,10.52
2017-05-04T00:48:27.084Z,10.52
2017-05-04T00:49:28.324Z,10.52
2017-05-04T00:50:29.562Z,10.4
2017-05-04T00:51:30.826Z,10.37
2017-05-04T00:52:32.104Z,10.43
2017-05-04T00:53:33.356Z,10.43
2017-05-04T00:54:34.662Z,10.4
2017-05-04T00:55:35.975Z,10.47
2017-05-04T00:56:37.254Z,10.37
2017-05-04T00:57:38.479Z,10.39
2017-05-04T00:58:39.722Z,10.43
2017-05-04T00:59:40.954Z,10.37
2017-05-04T01:00:42.250Z,10.37
2017-05-04T01:01:43.616Z,10.42
2017-05-04T01:02:44.824Z,10.56
2017-05-04T01:03:46.107Z,10.39
2017-05-04T01:04:47.324Z,10.42
2017-05-04T01:05:48.571Z,10.43
2017-05-04T01:06:50.085Z,10.46
2017-05-04T01:07:51.429Z,10.4
2017-05-04T01:08:52.550Z,10.43
2017-05-04T01:09:53.808Z,10.46
2017-05-04T01:10:55.025Z,10.42
2017-05-04T01:11:56.298Z,10.36
2017-05-04T01:12:57.537Z,10.42
2017-05-04T01:13:58.890Z,10.42
2017-05-04T01:15:00.157Z,10.4
2017-05-04T01:16:01.422Z,10.42
2017-05-04T01:17:02.649Z,10.39
2017-05-04T01:18:03.902Z,10.4
2017-05-04T01:19:05.144Z,10.32
2017-05-04T01:20:06.389Z,10.33
2017-05-04T01:21:07.636Z,10.34
2017-05-04T01:22:08.972Z,10.32
2017-05-04T01:23:10.097Z,10.3
2017-05-04T01:24:11.373Z,10.25
2017-05-04T01:25:12.611Z,10.25
2017-05-04T01:26:13.876Z,10.19
2017-05-04T01:27:15.161Z,10.26
2017-05-04T01:28:16.385Z,10.24
2017-05-04T01:29:17.622Z,10.19
2017-05-04T01:30:18.916Z,10.18
2017-05-04T01:31:20.175Z,10.22
2017-05-04T01:32:21.542Z,10.21
2017-05-04T01:33:22.819Z,10.19
2017-05-04T01:34:24.209Z,10.19
2017-05-04T01:35:25.468Z,10.17
2017-05-04T01:36:26.706Z,10.06
2017-05-04T01:37:27.955Z,10.15
2017-05-04T01:38:29.214Z,10.12
2017-05-04T01:39:30.489Z,10.1
2017-05-04T01:40:31.722Z,10.09
2017-05-04T01:41:32.965Z,10.09
2017-05-04T01:42:34.213Z,10.09
2017-05-04T01:43:35.477Z,10.07
2017-05-04T01:44:36.692Z,10.09
2017-05-04T01:45:37.930Z,9.96
2017-05-04T01:46:39.168Z,10.01
2017-05-04T01:47:40.513Z,10.07
2017-05-04T01:48:41.686Z,10.03
2017-05-04T01:49:42.924Z,10.07
2017-05-04T01:50:44.224Z,10.01
2017-05-04T01:51:45.463Z,10
2017-05-04T01:52:46.742Z,9.97
2017-05-04T01:53:47.976Z,9.97
2017-05-04T01:54:49.206Z,9.99
2017-05-04T01:55:50.470Z,10.01
2017-05-04T01:56:51.713Z,9.82
2017-05-04T01:57:52.959Z,10.01
2017-05-04T01:58:54.209Z,9.91
2017-05-04T01:59:55.458Z,9.88
2017-05-04T02:00:56.695Z,9.83
2017-05-04T02:01:57.928Z,9.86
2017-05-04T02:02:59.168Z,9.85
2017-05-04T02:04:00.422Z,9.88
2017-05-04T02:05:01.738Z,9.89
2017-05-04T02:06:02.970Z,9.86
2017-05-04T02:07:04.215Z,9.88
2017-05-04T02:08:05.450Z,9.88
2017-05-04T02:09:06.685Z,9.85
2017-05-04T02:10:07.957Z,9.79
2017-05-04T02:11:09.277Z,9.82
2017-05-04T02:12:10.546Z,9.82
2017-05-04T02:13:11.811Z,9.83
2017-05-04T02:14:13.040Z,9.75
2017-05-04T02:15:14.261Z,9.78
2017-05-04T02:16:15.543Z,9.73
2017-05-04T02:17:16.811Z,9.73
2017-05-04T02:18:18.092Z,9.71
2017-05-04T02:19:19.335Z,9.67
2017-05-04T02:20:20.558Z,9.7
2017-05-04T02:21:21.876Z,9.68
2017-05-04T02:22:23.128Z,9.66
2017-05-04T02:23:24.488Z,9.64
2017-05-04T02:24:25.728Z,9.66
2017-05-04T02:25:26.962Z,9.57
2017-05-04T02:26:28.218Z,9.6
2017-05-04T02:27:29.455Z,9.68
2017-05-04T02:28:30.712Z,9.63
2017-05-04T02:29:31.954Z,9.58
2017-05-04T02:30:33.180Z,9.58
2017-05-04T02:31:34.427Z,9.6
2017-05-04T02:32:35.638Z,9.57
2017-05-04T02:33:36.906Z,9.56
2017-05-04T02:34:38.168Z,9.6
2017-05-04T02:35:39.404Z,9.52
2017-05-04T02:36:40.696Z,9.48
2017-05-04T02:37:41.943Z,9.48
2017-05-04T02:38:43.256Z,9.49
2017-05-04T02:39:44.486Z,9.52
2017-05-04T02:40:45.735Z,9.46
2017-05-04T02:41:46.974Z,9.49
2017-05-04T02:42:48.220Z,9.43
2017-05-04T02:43:49.548Z,9.53
2017-05-04T02:44:50.799Z,9.49
2017-05-04T02:45:52.078Z,9.45
2017-05-04T02:46:53.291Z,9.43
2017-05-04T02:47:54.525Z,9.46
2017-05-04T02:48:55.753Z,9.39
2017-05-04T02:49:56.991Z,9.4
2017-05-04T02:50:58.243Z,9.4
2017-05-04T02:51:59.470Z,9.34
2017-05-04T02:53:00.731Z,9.3
2017-05-04T02:54:01.980Z,9.34
2017-05-04T02:55:03.235Z,9.32
2017-05-04T02:56:04.471Z,9.28
2017-05-04T02:57:05.764Z,9.23
2017-05-04T02:58:06.982Z,9.25
2017-05-04T02:59:08.212Z,9.23
2017-05-04T03:00:09.444Z,9.25
2017-05-04T03:01:10.681Z,9.18
2017-05-04T03:02:12.073Z,9.15
2017-05-04T03:03:13.320Z,9.1
2017-05-04T03:04:14.600Z,9.06
2017-05-04T03:05:15.856Z,9.06
2017-05-04T03:06:17.071Z,9.04
2017-05-04T03:07:18.336Z,9.02
2017-05-04T03:08:19.571Z,8.93
2017-05-04T03:09:20.808Z,8.88
2017-05-04T03:10:22.075Z,8.88
2017-05-04T03:11:23.344Z,8.84
2017-05-04T03:12:24.554Z,8.81
2017-05-04T03:13:25.806Z,8.79
2017-05-04T03:14:27.046Z,8.83
2017-05-04T03:15:28.280Z,8.75
2017-05-04T03:16:29.655Z,8.79
2017-05-04T03:17:30.888Z,8.78
2017-05-04T03:18:32.139Z,8.72
2017-05-04T03:19:33.376Z,8.69
2017-05-04T03:20:34.641Z,8.72
2017-05-04T03:21:35.917Z,8.6
2017-05-04T03:22:37.126Z,8.54
2017-05-04T03:23:38.367Z,8.54
2017-05-04T03:24:39.607Z,8.54
2017-05-04T03:25:40.844Z,8.54
2017-05-04T03:26:42.193Z,8.54
2017-05-04T03:27:43.494Z,8.51
2017-05-04T03:28:44.829Z,8.47
2017-05-04T03:29:46.066Z,8.5
2017-05-04T03:30:47.309Z,8.42
2017-05-04T03:31:48.540Z,8.45
2017-05-04T03:32:49.791Z,8.4
2017-05-04T03:33:51.036Z,8.44
2017-05-04T03:34:52.287Z,8.42
2017-05-04T03:35:53.554Z,8.39
2017-05-04T03:36:54.778Z,8.39
2017-05-04T03:37:56.059Z,8.36
2017-05-04T03:38:57.334Z,8.39
2017-05-04T03:39:58.586Z,8.36
2017-05-04T03:40:59.842Z,8.36
2017-05-04T03:42:01.081Z,8.37
2017-05-04T03:43:02.346Z,8.39
2017-05-04T03:44:03.585Z,8.44
2017-05-04T03:45:04.842Z,8.39
2017-05-04T03:46:06.066Z,8.47
2017-05-04T03:47:07.331Z,8.45
2017-05-04T03:48:08.621Z,8.48
2017-05-04T03:49:09.921Z,8.45
2017-05-04T03:50:11.215Z,8.57
2017-05-04T03:51:12.480Z,8.55
2017-05-04T03:52:13.733Z,8.66
2017-05-04T03:53:14.982Z,8.62
2017-05-04T03:54:16.229Z,8.65
2017-05-04T03:55:17.560Z,8.72
2017-05-04T03:56:18.795Z,8.69
2017-05-04T03:57:20.099Z,8.68
2017-05-04T03:58:21.333Z,8.81
2017-05-04T03:59:22.694Z,8.78
2017-05-04T04:00:23.945Z,8.78
2017-05-04T04:01:25.215Z,8.79
2017-05-04T04:02:26.408Z,8.78
2017-05-04T04:03:27.654Z,8.76
2017-05-04T04:04:28.910Z,8.88
2017-05-04T04:05:30.224Z,8.79
2017-05-04T04:06:31.689Z,8.79
2017-05-04T04:07:32.928Z,8.79
2017-05-04T04:08:34.170Z,8.81
2017-05-04T04:09:35.400Z,8.86
2017-05-04T04:10:36.857Z,8.86
2017-05-04T04:11:38.160Z,8.83
2017-05-04T04:12:39.395Z,8.84
2017-05-04T04:13:40.623Z,8.84
2017-05-04T04:14:42.000Z,8.86
2017-05-04T04:15:43.238Z,8.84
2017-05-04T04:16:44.499Z,8.88
2017-05-04T04:17:45.837Z,8.99
2017-05-04T04:18:47.081Z,8.9
2017-05-04T04:19:48.321Z,8.91
2017-05-04T04:20:49.552Z,8.9
2017-05-04T04:21:50.792Z,8.9
2017-05-04T04:22:52.044Z,8.86
2017-05-04T04:23:53.281Z,8.9
2017-05-04T04:24:54.590Z,8.9
2017-05-04T04:25:55.835Z,8.88
2017-05-04T04:26:57.069Z,8.84
2017-05-04T04:27:58.310Z,8.86
2017-05-04T04:28:59.586Z,8.91
2017-05-04T04:30:00.863Z,8.91
2017-05-04T04:31:02.208Z,8.99
2017-05-04T04:32:03.437Z,8.97
2017-05-04T04:33:04.680Z,8.93
2017-05-04T04:34:05.939Z,8.96
2017-05-04T04:35:07.166Z,8.97
2017-05-04T04:36:08.415Z,9.04
2017-05-04T04:37:09.836Z,9.04
2017-05-04T04:38:11.081Z,9.09
2017-05-04T04:39:12.324Z,9.09
2017-05-04T04:40:13.558Z,9.09
2017-05-04T04:41:14.796Z,9.06
2017-05-04T04:42:16.043Z,9.09
2017-05-04T04:43:17.308Z,9.1
2017-05-04T04:44:18.582Z,9.13
2017-05-04T04:45:19.804Z,9.04
2017-05-04T04:46:21.047Z,9.13
2017-05-04T04:47:22.316Z,9.06
2017-05-04T04:48:23.533Z,9.05
2017-05-04T04:49:24.811Z,9.05
2017-05-04T04:50:26.046Z,9.06
2017-05-04T04:51:27.354Z,9.12
2017-05-04T04:52:28.586Z,9.09
2017-05-04T04:53:30.081Z,9.09
2017-05-04T04:54:31.308Z,9.09
2017-05-04T04:55:32.545Z,9.05
2017-05-04T04:56:33.788Z,9.09
2017-05-04T04:57:35.021Z,9.18
2017-05-04T04:58:36.316Z,9.16
2017-05-04T04:59:37.537Z,9.12
2017-05-04T05:00:38.906Z,9.13
2017-05-04T05:01:40.189Z,9.27
2017-05-04T05:02:41.456Z,9.13
2017-05-04T05:03:42.641Z,9.27
2017-05-04T05:04:43.882Z,9.25
2017-05-04T05:05:45.110Z,9.28
2017-05-04T05:06:46.350Z,9.24
2017-05-04T05:07:47.589Z,9.3
2017-05-04T05:08:48.829Z,9.38
2017-05-04T05:09:50.062Z,9.42
2017-05-04T05:10:51.302Z,9.43
2017-05-04T05:11:52.547Z,9.42
2017-05-04T05:12:53.920Z,9.39
2017-05-04T05:13:55.171Z,9.45
2017-05-04T05:14:56.421Z,9.42
2017-05-04T05:15:57.652Z,9.49
2017-05-04T05:16:58.886Z,9.48
2017-05-04T05:18:00.253Z,9.48
2017-05-04T05:19:01.490Z,9.58
2017-05-04T05:20:02.764Z,9.61
2017-05-04T05:21:04.117Z,9.52
2017-05-04T05:22:05.356Z,9.58
2017-05-04T05:23:06.596Z,9.61
2017-05-04T05:24:07.848Z,9.67
2017-05-04T05:25:09.074Z,9.71
2017-05-04T05:26:10.321Z,9.76
2017-05-04T05:27:11.574Z,9.71
2017-05-04T05:28:12.794Z,9.91
2017-05-04T05:29:14.038Z,9.93
2017-05-04T05:30:15.279Z,9.88
2017-05-04T05:31:16.660Z,9.97
2017-05-04T05:32:18.070Z,9.94
2017-05-04T05:33:19.196Z,10.14
2017-05-04T05:34:20.442Z,10.07
2017-05-04T05:35:21.693Z,10.09
2017-05-04T05:36:22.923Z,10.17
2017-05-04T05:37:24.215Z,10.33
2017-05-04T05:38:25.574Z,10.34
2017-05-04T05:39:26.809Z,10.43
2017-05-04T05:40:28.117Z,10.42
2017-05-04T05:41:29.361Z,10.47
2017-05-04T05:42:30.601Z,10.7
2017-05-04T05:43:31.848Z,10.68
2017-05-04T05:44:33.139Z,10.77
2017-05-04T05:45:34.378Z,10.81
2017-05-04T05:46:35.775Z,10.81
2017-05-04T05:47:36.991Z,10.83
2017-05-04T05:48:38.240Z,10.99
2017-05-04T05:49:39.496Z,11.06
2017-05-04T05:50:40.747Z,11.17
2017-05-04T05:51:42.013Z,11.21
2017-05-04T05:52:43.248Z,11.34
2017-05-04T05:53:44.481Z,11.32
2017-05-04T05:54:45.716Z,11.53
2017-05-04T05:55:46.954Z,11.62
2017-05-04T05:56:48.272Z,11.82
2017-05-04T05:57:49.666Z,12.39
2017-05-04T05:58:50.903Z,12.71
2017-05-04T05:59:52.144Z,12.84
2017-05-04T06:00:53.399Z,13.22
2017-05-04T06:01:54.662Z,13.43
2017-05-04T06:02:55.902Z,13.67
2017-05-04T06:03:57.177Z,13.92
2017-05-04T06:04:58.488Z,13.98
2017-05-04T06:05:59.733Z,13.88
2017-05-04T06:07:00.985Z,13.77
2017-05-04T06:08:02.223Z,13.49
2017-05-04T06:09:03.505Z,13.2
2017-05-04T06:10:04.804Z,12.93
2017-05-04T06:11:06.211Z,12.67
2017-05-04T06:12:07.540Z,12.52
2017-05-04T06:13:08.755Z,12.33
2017-05-04T06:14:10.027Z,12.12
2017-05-04T06:15:11.278Z,12.13
2017-05-04T06:16:12.611Z,12.11
2017-05-04T06:17:13.863Z,12.16
2017-05-04T06:18:15.098Z,12.11
2017-05-04T06:19:16.347Z,12.04
2017-05-04T06:20:17.606Z,11.89
2017-05-04T06:21:18.853Z,11.9
2017-05-04T06:22:20.098Z,11.82
2017-05-04T06:23:21.348Z,11.65
2017-05-04T06:24:22.644Z,11.67
2017-05-04T06:25:23.887Z,11.68
2017-05-04T06:26:25.114Z,11.64
2017-05-04T06:27:26.381Z,11.75
2017-05-04T06:28:27.636Z,11.7
2017-05-04T06:29:28.897Z,11.75
2017-05-04T06:30:30.158Z,11.71
2017-05-04T06:31:31.426Z,11.64
2017-05-04T06:32:32.670Z,11.61
2017-05-04T06:33:33.975Z,11.62
2017-05-04T06:34:35.243Z,11.54
2017-05-04T06:35:36.464Z,11.54
2017-05-04T06:36:37.711Z,11.57
2017-05-04T06:37:38.961Z,11.71
2017-05-04T06:38:40.202Z,11.68
2017-05-04T06:39:41.450Z,11.74
2017-05-04T06:40:42.683Z,11.64
2017-05-04T06:41:43.922Z,11.54
2017-05-04T06:42:45.196Z,11.65
2017-05-04T06:43:46.537Z,11.68
2017-05-04T06:44:47.749Z,11.71
2017-05-04T06:45:49.047Z,11.78
2017-05-04T06:46:50.330Z,11.75
2017-05-04T06:47:51.640Z,11.87
2017-05-04T06:48:52.882Z,11.9
2017-05-04T06:49:54.145Z,11.86
2017-05-04T06:50:55.364Z,11.87
2017-05-04T06:51:56.738Z,11.82
2017-05-04T06:52:57.998Z,11.96
2017-05-04T06:53:59.241Z,11.94
2017-05-04T06:55:00.520Z,11.9
2017-05-04T06:56:01.739Z,12.01
2017-05-04T06:57:02.994Z,12.05
2017-05-04T06:58:04.226Z,11.99
2017-05-04T06:59:05.483Z,12.01
2017-05-04T07:00:06.714Z,12.02
2017-05-04T07:01:07.977Z,12.01
2017-05-04T07:02:09.201Z,11.93
2017-05-04T07:03:10.463Z,11.93
2017-05-04T07:04:11.720Z,11.87
2017-05-04T07:05:12.958Z,11.94
2017-05-04T07:06:14.310Z,12.01
2017-05-04T07:07:15.568Z,11.96
2017-05-04T07:08:16.805Z,12.06
2017-05-04T07:09:18.047Z,12.2
2017-05-04T07:10:19.301Z,12.19
2017-05-04T07:11:20.528Z,12.3
2017-05-04T07:12:21.895Z,12.3
2017-05-04T07:13:23.162Z,12.31
2017-05-04T07:14:24.516Z,12.31
2017-05-04T07:15:25.754Z,12.45
2017-05-04T07:16:26.993Z,12.69
2017-05-04T07:17:28.281Z,12.81
2017-05-04T07:18:29.628Z,13.02
2017-05-04T07:19:30.923Z,13.11
2017-05-04T07:20:32.168Z,13.32
2017-05-04T07:21:33.421Z,13.4
2017-05-04T07:22:34.681Z,13.59
2017-05-04T07:23:35.909Z,13.73
2017-05-04T07:24:37.271Z,13.87
2017-05-04T07:25:38.522Z,13.89
2017-05-04T07:26:39.793Z,13.94
2017-05-04T07:27:41.031Z,13.81
2017-05-04T07:28:42.286Z,13.69
2017-05-04T07:29:43.587Z,13.56
2017-05-04T07:30:44.851Z,13.62
2017-05-04T07:31:46.128Z,13.63
2017-05-04T07:32:47.404Z,13.49
2017-05-04T07:33:48.635Z,13.49
2017-05-04T07:34:49.993Z,13.37
2017-05-04T07:35:51.233Z,13.38
2017-05-04T07:36:52.492Z,13.32
2017-05-04T07:37:53.846Z,13.46
2017-05-04T07:38:55.081Z,13.52
2017-05-04T07:39:56.330Z,13.63
2017-05-04T07:40:57.579Z,13.91
2017-05-04T07:41:58.816Z,14.07
2017-05-04T07:43:00.097Z,14.32
2017-05-04T07:44:01.338Z,14.6
2017-05-04T07:45:02.657Z,14.87
2017-05-04T07:46:03.937Z,15.31
2017-05-04T07:47:05.159Z,15.49
2017-05-04T07:48:06.405Z,15.76
2017-05-04T07:49:07.692Z,15.81
2017-05-04T07:50:08.969Z,15.63
2017-05-04T07:51:10.211Z,15.67
2017-05-04T07:52:11.461Z,15.68
2017-05-04T07:53:12.693Z,16.11
2017-05-04T07:54:13.947Z,16.2
2017-05-04T07:55:15.242Z,16.55
2017-05-04T07:56:16.498Z,16.95
2017-05-04T07:57:17.740Z,17.2
2017-05-04T07:58:18.979Z,17.51
2017-05-04T07:59:20.262Z,17.81
2017-05-04T08:00:21.488Z,17.89
2017-05-04T08:01:22.798Z,18.1
2017-05-04T08:02:24.072Z,18.39
2017-05-04T08:03:25.282Z,18.59
2017-05-04T08:04:26.550Z,18.37
2017-05-04T08:05:27.778Z,18.5
2017-05-04T08:06:29.019Z,18.72
2017-05-04T08:07:30.272Z,19.01
2017-05-04T08:08:31.543Z,19.54
2017-05-04T08:09:32.904Z,20.31
2017-05-04T08:10:34.153Z,20.74
2017-05-04T08:11:35.422Z,21.23
2017-05-04T08:12:36.673Z,21.08
2017-05-04T08:13:38.042Z,21.19
2017-05-04T08:14:39.293Z,21.17
2017-05-04T08:15:40.547Z,21.11
2017-05-04T08:16:41.797Z,20.91
2017-05-04T08:17:43.038Z,20.59
2017-05-04T08:18:44.350Z,20.61
2017-05-04T08:19:45.596Z,20.79
2017-05-04T08:20:46.948Z,20.74
2017-05-04T08:21:48.180Z,20.86
2017-05-04T08:22:49.444Z,21.32
2017-05-04T08:23:50.692Z,21.61
2017-05-04T08:24:51.941Z,21.74
2017-05-04T08:25:53.372Z,22.29
2017-05-04T08:26:54.629Z,22.43
2017-05-04T08:27:55.919Z,22.56
2017-05-04T08:28:57.163Z,22.6
2017-05-04T08:29:58.431Z,22.78
2017-05-04T08:30:59.701Z,23.24
2017-05-04T08:32:01.026Z,23.38
2017-05-04T08:33:02.347Z,23.76
2017-05-04T08:34:03.611Z,23.75
2017-05-04T08:35:04.859Z,23.34
2017-05-04T08:36:06.104Z,22.65
2017-05-04T08:37:07.354Z,22.19
2017-05-04T08:38:08.615Z,21.72
2017-05-04T08:39:09.864Z,21.48
2017-05-04T08:40:11.111Z,20.93
2017-05-04T08:41:12.473Z,20.27
2017-05-04T08:42:13.727Z,19.88
2017-05-04T08:43:14.969Z,19.48
2017-05-04T08:44:16.225Z,19.57
2017-05-04T08:45:17.478Z,19.55
2017-05-04T08:46:18.813Z,19.53
2017-05-04T08:47:20.060Z,19.32
2017-05-04T08:48:21.304Z,19.32
2017-05-04T08:49:22.614Z,18.97
2017-05-04T08:50:23.859Z,18.79
2017-05-04T08:51:25.114Z,18.84
2017-05-04T08:52:26.368Z,18.74
2017-05-04T08:53:27.622Z,18.7
2017-05-04T08:54:28.856Z,18.46
2017-05-04T08:55:30.125Z,18.61
2017-05-04T08:56:31.347Z,18.28
2017-05-04T08:57:32.849Z,18.15
2017-05-04T08:58:34.104Z,18.12
2017-05-04T08:59:35.406Z,18.37
2017-05-04T09:00:36.653Z,18.67
2017-05-04T09:01:37.902Z,18.98
2017-05-04T09:02:39.181Z,19.2
2017-05-04T09:03:40.484Z,19.39
2017-05-04T09:04:41.732Z,19.1
2017-05-04T09:05:42.980Z,18.73
2017-05-04T09:06:44.239Z,18.57
2017-05-04T09:07:45.477Z,18.07
2017-05-04T09:08:46.742Z,18.07
2017-05-04T09:09:48.007Z,18.28
2017-05-04T09:10:49.260Z,18.37
2017-05-04T09:11:50.596Z,18.42
2017-05-04T09:12:51.858Z,18.64
2017-05-04T09:13:53.095Z,18.73
2017-05-04T09:14:54.490Z,18.83
2017-05-04T09:15:55.711Z,18.83
2017-05-04T09:16:56.999Z,18.87
2017-05-04T09:17:58.226Z,19.24
2017-05-04T09:18:59.474Z,19.55
2017-05-04T09:20:00.715Z,19.94
2017-05-04T09:21:01.995Z,20.43
2017-05-04T09:22:03.313Z,21.3
2017-05-04T09:23:04.565Z,22.16
2017-05-04T09:24:05.811Z,22.57
2017-05-04T09:25:07.070Z,22.53
2017-05-04T09:26:08.323Z,22.31
2017-05-04T09:27:09.562Z,21.97
2017-05-04T09:28:10.823Z,21.46
2017-05-04T09:29:12.161Z,21.29
2017-05-04T09:30:13.559Z,21.61
2017-05-04T09:31:14.716Z,22.28
2017-05-04T09:32:15.967Z,22.39
2017-05-04T09:33:17.222Z,22.23
2017-05-04T09:34:18.515Z,21.83
2017-05-04T09:35:19.790Z,21.57
2017-05-04T09:36:21.028Z,21.21
2017-05-04T09:37:22.324Z,21.08
2017-05-04T09:38:23.583Z,20.62
2017-05-04T09:39:24.828Z,20.54
2017-05-04T09:40:26.243Z,20.33
2017-05-04T09:41:27.374Z,20
2017-05-04T09:42:28.651Z,19.61
2017-05-04T09:43:29.891Z,19.24
2017-05-04T09:44:31.152Z,18.94
2017-05-04T09:45:32.388Z,18.73
2017-05-04T09:46:33.634Z,18.68
2017-05-04T09:47:34.884Z,18.31
2017-05-04T09:48:36.221Z,18.15
2017-05-04T09:49:37.467Z,17.97
2017-05-04T09:50:38.738Z,17.82
2017-05-04T09:51:40.002Z,17.81
2017-05-04T09:52:41.238Z,17.66
2017-05-04T09:53:42.491Z,17.78
2017-05-04T09:54:43.771Z,17.79
2017-05-04T09:55:45.018Z,17.78
2017-05-04T09:56:46.267Z,17.74
2017-05-04T09:57:47.518Z,17.62
2017-05-04T09:58:48.766Z,17.28
2017-05-04T09:59:50.181Z,17.32
2017-05-04T10:00:51.424Z,17.38
2017-05-04T10:01:52.672Z,17.35
2017-05-04T10:02:53.913Z,17.26
2017-05-04T10:03:55.163Z,17.26
2017-05-04T10:04:56.446Z,17.28
2017-05-04T10:05:57.694Z,17.23
2017-05-04T10:06:59.005Z,17.28
2017-05-04T10:08:00.253Z,17.43
2017-05-04T10:09:01.498Z,17.69
2017-05-04T10:10:02.834Z,17.87
2017-05-04T10:11:04.341Z,17.94
2017-05-04T10:12:05.475Z,17.76
2017-05-04T10:13:06.748Z,17.82
2017-05-04T10:14:07.970Z,18.06
2017-05-04T10:15:09.202Z,18.15
2017-05-04T10:16:10.463Z,18.4
2017-05-04T10:17:11.726Z,18.22
2017-05-04T10:18:13.129Z,18.09
2017-05-04T10:19:14.380Z,17.78
2017-05-04T10:20:15.635Z,17.79
2017-05-04T10:21:16.905Z,17.57
2017-05-04T10:22:18.217Z,17.32
2017-05-04T10:23:19.467Z,17.29
2017-05-04T10:24:20.712Z,17.33
2017-05-04T10:25:21.954Z,17.35
2017-05-04T10:26:23.199Z,17.2
2017-05-04T10:27:24.454Z,17.06
2017-05-04T10:28:25.680Z,17.03
2017-05-04T10:29:26.928Z,16.89
2017-05-04T10:30:28.294Z,16.85
2017-05-04T10:31:29.551Z,16.71
2017-05-04T10:32:30.786Z,16.73
2017-05-04T10:33:32.037Z,16.68
2017-05-04T10:34:33.271Z,16.86
2017-05-04T10:35:34.561Z,17.11
2017-05-04T10:36:35.806Z,17
2017-05-04T10:37:37.056Z,16.93
2017-05-04T10:38:38.296Z,16.93
2017-05-04T10:39:39.542Z,16.83
2017-05-04T10:40:40.788Z,16.8
2017-05-04T10:41:42.137Z,16.81
2017-05-04T10:42:43.426Z,16.74
2017-05-04T10:43:44.685Z,16.7
2017-05-04T10:44:45.935Z,16.62
2017-05-04T10:45:47.160Z,16.65
2017-05-04T10:46:48.466Z,16.63
2017-05-04T10:47:49.925Z,16.52
2017-05-04T10:48:51.250Z,16.48
2017-05-04T10:49:52.588Z,16.37
2017-05-04T10:50:53.788Z,16.04
2017-05-04T10:51:55.029Z,16.07
2017-05-04T10:52:56.320Z,16.23
2017-05-04T10:53:57.563Z,16.11
2017-05-04T10:54:58.794Z,16.16
2017-05-04T10:56:00.067Z,16.09
2017-05-04T10:57:01.295Z,16.11
2017-05-04T10:58:02.613Z,16.15
2017-05-04T10:59:03.876Z,16.09
2017-05-04T11:00:05.125Z,16.09
2017-05-04T11:01:06.464Z,16.11
2017-05-04T11:02:07.736Z,15.94
2017-05-04T11:03:08.982Z,16.11
2017-05-04T11:04:10.226Z,16.11
2017-05-04T11:05:11.469Z,16.09
2017-05-04T11:06:12.742Z,15.97
2017-05-04T11:07:14.076Z,15.81
2017-05-04T11:08:15.316Z,15.82
2017-05-04T11:09:16.569Z,15.67
2017-05-04T11:10:17.805Z,15.64
2017-05-04T11:11:19.051Z,15.75
2017-05-04T11:12:20.322Z,15.72
2017-05-04T11:13:21.555Z,15.68
2017-05-04T11:14:22.782Z,15.84
2017-05-04T11:15:24.041Z,15.93
2017-05-04T11:16:25.268Z,16.16
2017-05-04T11:17:26.643Z,16.25
2017-05-04T11:18:27.909Z,16.06
2017-05-04T11:19:29.238Z,16.16
2017-05-04T11:20:30.678Z,16.03
2017-05-04T11:21:31.933Z,15.94
2017-05-04T11:22:33.172Z,15.99
2017-05-04T11:23:34.426Z,15.84
2017-05-04T11:24:35.788Z,15.68
2017-05-04T11:25:37.039Z,15.64
2017-05-04T11:26:38.318Z,15.6
2017-05-04T11:27:39.587Z,15.38
2017-05-04T11:28:40.836Z,15.11
2017-05-04T11:29:42.187Z,15.15
2017-05-04T11:30:43.429Z,14.94
2017-05-04T11:31:44.667Z,14.91
2017-05-04T11:32:45.894Z,15.08
2017-05-04T11:33:47.139Z,15.31
2017-05-04T11:34:48.416Z,15.27
2017-05-04T11:35:49.711Z,15.17
2017-05-04T11:36:51.016Z,15.13
2017-05-04T11:37:52.391Z,15.23
2017-05-04T11:38:53.712Z,15.23
2017-05-04T11:39:54.983Z,15.2
2017-05-04T11:40:56.310Z,15.17
2017-05-04T11:41:57.559Z,15.08
2017-05-04T11:42:58.807Z,15.12
2017-05-04T11:44:00.053Z,15.08
2017-05-04T11:45:01.319Z,15.09
2017-05-04T11:46:02.560Z,15.13
2017-05-04T11:47:03.816Z,15.11
2017-05-04T11:48:05.125Z,15.19
2017-05-04T11:49:06.400Z,15.31
2017-05-04T11:50:07.634Z,15.21
2017-05-04T11:51:08.937Z,15.21
2017-05-04T11:52:10.201Z,15.06
2017-05-04T11:53:11.423Z,14.84
2017-05-04T11:54:12.674Z,14.71
2017-05-04T11:55:13.916Z,14.65
2017-05-04T11:56:15.223Z,14.67
2017-05-04T11:57:16.489Z,14.64
2017-05-04T11:58:17.747Z,14.67
2017-05-04T11:59:18.968Z,14.56
2017-05-04T12:00:20.262Z,14.47
2017-05-04T12:01:21.528Z,14.35
2017-05-04T12:02:22.826Z,14.29
2017-05-04T12:03:24.087Z,14.25
2017-05-04T16:54:49.100Z,11.21
2017-05-04T16:55:50.641Z,11.19
2017-05-04T16:56:51.885Z,11.11
2017-05-04T16:57:53.155Z,11.24
2017-05-04T16:58:54.393Z,11.2
2017-05-04T16:59:55.662Z,11.1
2017-05-04T17:00:56.897Z,11.13
2017-05-04T17:01:58.186Z,11.17
2017-05-04T17:02:59.434Z,11.11
2017-05-04T17:04:00.704Z,11.1
2017-05-04T17:05:01.965Z,11.07
2017-05-04T17:06:03.205Z,11.07
2017-05-04T17:07:04.552Z,11.07
2017-05-04T17:08:05.806Z,11.06
2017-05-04T17:09:07.095Z,11.02
2017-05-04T17:10:08.336Z,10.98
2017-05-04T17:11:09.619Z,10.99
2017-05-04T17:12:10.952Z,10.89
2017-05-04T17:13:12.236Z,10.92
2017-05-04T17:14:13.532Z,10.98
2017-05-04T17:15:14.869Z,10.88
2017-05-04T17:16:16.125Z,10.92
2017-05-04T17:17:17.384Z,10.94
2017-05-04T17:18:18.714Z,10.89
2017-05-04T17:19:19.969Z,10.95
2017-05-04T17:20:21.320Z,10.86
2017-05-04T17:21:22.657Z,11.01
2017-05-04T17:22:23.904Z,10.98
2017-05-04T17:23:25.146Z,10.98
2017-05-04T17:24:26.519Z,10.99
2017-05-04T17:25:27.752Z,10.98
2017-05-04T17:26:29.063Z,10.99
2017-05-04T17:27:30.301Z,11.02
2017-05-04T17:28:31.568Z,11.03
2017-05-04T17:29:32.890Z,10.99
2017-05-04T17:30:34.427Z,10.92
2017-05-04T17:31:35.689Z,11.02
2017-05-04T17:32:36.913Z,10.92
2017-05-04T17:33:38.156Z,10.89
2017-05-04T17:34:39.422Z,10.92
2017-05-04T17:35:40.751Z,10.95
2017-05-04T17:36:42.103Z,10.94
2017-05-04T17:37:43.352Z,10.88
2017-05-04T17:38:44.594Z,10.91
2017-05-04T17:39:45.850Z,10.91
2017-05-04T17:40:47.083Z,10.94
2017-05-04T17:41:48.331Z,10.92
2017-05-04T17:42:49.565Z,10.89
2017-05-04T17:43:50.806Z,10.84
2017-05-04T17:44:52.069Z,10.86
2017-05-04T17:45:53.318Z,10.86
2017-05-04T17:46:54.563Z,10.84
2017-05-04T17:47:55.824Z,10.84
2017-05-04T17:48:57.145Z,10.74
2017-05-04T17:49:58.475Z,10.7
2017-05-04T17:50:59.923Z,10.66
2017-05-04T17:52:01.166Z,10.65
2017-05-04T17:53:02.399Z,10.6
2017-05-04T17:54:03.652Z,10.59
2017-05-04T17:55:04.946Z,10.6
2017-05-04T17:56:06.394Z,10.46
2017-05-04T17:57:07.565Z,10.47
2017-05-04T17:58:08.812Z,10.43
2017-05-04T17:59:10.089Z,10.55
2017-05-04T18:00:11.329Z,10.43
2017-05-04T18:01:12.728Z,10.42
2017-05-04T18:02:14.067Z,10.37
2017-05-04T18:03:15.263Z,10.32
2017-05-04T18:04:16.532Z,10.33
2017-05-04T18:05:17.783Z,10.14
2017-05-04T18:06:19.068Z,10.19
2017-05-04T18:07:20.381Z,10.14
2017-05-04T18:08:21.660Z,10.17